Milverton, Canada
Current Conditions -  °F | °C
As of 9:37 AM on Tuesday 21 Oct 2014 (Local Time) from CYKF Reporting Station
Moderate Rain Moderate Rain  
Wind Chill: 41°   Ceiling: 3100
Heat Index: 46°   Visibility: 8mi
Dew Point: 45°   Wind: 10mph
Humidity: 93%   Direction: 320°NW
Pressure: 29.86"   Gusts: NA
Location:  43.57°N, 80.93°W
Report Text: CYKF 211337Z AUTO 32009KT 8SM RA FEW009 SCT019 BKN031 OVC046 08/07 A2986 RMK PCPN 2.0MM PAST HR SLP116
Loading
Personal Weather Stations






























Interactive Weather Map
Tropical Storm Tracking
New forecast layout! Learn more

10-Day Weather Forecast

Advertisements
Track Severe Weather on mobile